This is the latest recevied weather packets stored in our database for station/object HS2GJW-1. If no packets are shown the sender has not sent any weather packets the latest 10 day(s).
| Time | Temp. | Humidity | Pressure | Rain* | Wind** | Luminosity | Snow |
|---|---|---|---|---|---|---|---|
| 1777724209 | 34.44° C | 72% | 1006 hPa | - | - | 0 W/m² | - |
| 1777723584 | 34.44° C | 72% | 1006 hPa | - | - | 0 W/m² | - |
| 1777722960 | 34.44° C | 71% | 1006 hPa | - | - | 0 W/m² | - |
| 1777722336 | 34.44° C | 70% | 1006 hPa | - | - | 0 W/m² | - |
| 1777721710 | 34.44° C | 69% | 1006 hPa | - | - | 0 W/m² | - |
| 1777721083 | 34.44° C | 70% | 1006 hPa | - | - | 0 W/m² | - |
| 1777720458 | 34.44° C | 69% | 1006 hPa | - | - | 0 W/m² | - |
| 1777719832 | 34.44° C | 69% | 1006 hPa | - | - | 0 W/m² | - |
| 1777719207 | 34.44° C | 67% | 1006 hPa | - | - | 0 W/m² | - |
| 1777718581 | 34.44° C | 68% | 1006 hPa | - | - | 0 W/m² | - |
| 1777681298 | 31.11° C | 99% | 1010 hPa | - | - | 0 W/m² | - |
| 1777680672 | 30.56° C | 99% | 1010 hPa | - | - | 0 W/m² | - |
| 1777680046 | 30° C | 99% | 1010 hPa | - | - | 0 W/m² | - |
| 1777679420 | 30° C | 99% | 1010 hPa | - | - | 0 W/m² | - |
| 1777678796 | 29.44° C | 99% | 1010 hPa | - | - | 0 W/m² | - |
| 1777678548 | 29.44° C | 99% | 1009 hPa | - | - | 0 W/m² | - |
| 1777677922 | 28.89° C | 99% | 1009 hPa | - | - | 0 W/m² | - |
| 1777677297 | 28.89° C | 99% | 1009 hPa | - | - | 0 W/m² | - |
| 1777676673 | 28.89° C | 99% | 1009 hPa | - | - | 0 W/m² | - |
| 1777639243 | 32.78° C | 70% | 1008 hPa | - | - | 0 W/m² | - |
| 1777638619 | 33.33° C | 68% | 1008 hPa | - | - | 0 W/m² | - |
| 1777637995 | 33.33° C | 68% | 1008 hPa | - | - | 0 W/m² | - |
| 1777637371 | 33.33° C | 70% | 1008 hPa | - | - | 0 W/m² | - |
| 1777636747 | 33.89° C | 67% | 1008 hPa | - | - | 0 W/m² | - |
| 1777636123 | 33.89° C | 65% | 1008 hPa | - | - | 0 W/m² | - |
* Rain since midnight (hover to see other rain measurements)
** Current wind speed in m/s (hover to see current wind gust speed)